createdAt,value
2019-01-29T00:01:12.416Z,100.00
2019-01-29T00:04:20.307Z,100.00
2019-01-29T00:07:27.902Z,100.00
2019-01-29T00:10:36.823Z,100.00
2019-01-29T00:13:44.425Z,100.00
2019-01-29T00:16:52.355Z,100.00
2019-01-29T00:19:59.850Z,100.00
2019-01-29T00:23:07.678Z,100.00
2019-01-29T00:26:15.521Z,100.00
2019-01-29T00:29:23.095Z,100.00
2019-01-29T00:32:31.173Z,100.00
2019-01-29T00:35:38.743Z,100.00
2019-01-29T00:38:46.464Z,100.00
2019-01-29T00:41:53.998Z,100.00
2019-01-29T00:45:01.782Z,99.99
2019-01-29T00:48:09.334Z,99.79
2019-01-29T00:51:16.774Z,98.99
2019-01-29T00:54:24.378Z,99.02
2019-01-29T00:57:32.033Z,99.18
2019-01-29T01:00:39.544Z,98.50
2019-01-29T01:03:47.387Z,97.67
2019-01-29T01:06:54.906Z,96.77
2019-01-29T01:10:03.097Z,96.83
2019-01-29T01:13:11.195Z,96.67
2019-01-29T01:16:21.620Z,96.85
2019-01-29T01:19:29.179Z,97.00
2019-01-29T01:22:36.722Z,97.10
2019-01-29T01:25:44.238Z,97.48
2019-01-29T01:28:51.817Z,97.92
2019-01-29T01:31:59.327Z,97.94
2019-01-29T01:35:07.132Z,97.64
2019-01-29T01:38:14.853Z,98.41
2019-01-29T01:41:22.465Z,98.45
2019-01-29T01:44:30.071Z,97.67
2019-01-29T01:47:37.658Z,97.59
2019-01-29T01:50:45.270Z,97.72
2019-01-29T01:53:53.597Z,96.06
2019-01-29T01:57:01.561Z,95.80
2019-01-29T02:00:18.215Z,95.69
2019-01-29T02:03:25.889Z,96.07
2019-01-29T02:06:33.789Z,96.42
2019-01-29T02:09:44.318Z,96.32
2019-01-29T02:12:52.355Z,97.44
2019-01-29T02:15:59.926Z,96.78
2019-01-29T02:19:07.604Z,96.40
2019-01-29T02:22:15.432Z,96.93
2019-01-29T02:25:22.992Z,97.06
2019-01-29T02:28:30.853Z,97.20
2019-01-29T02:31:38.395Z,96.22
2019-01-29T02:34:46.360Z,96.20
2019-01-29T02:37:54.170Z,96.35
2019-01-29T02:41:01.992Z,95.45
2019-01-29T02:44:09.884Z,96.00
2019-01-29T02:47:17.635Z,95.50
2019-01-29T02:50:25.497Z,95.47
2019-01-29T02:53:33.077Z,95.55
2019-01-29T02:56:40.601Z,95.68
2019-01-29T02:59:48.126Z,95.30
2019-01-29T03:02:56.006Z,95.79
2019-01-29T03:06:04.056Z,96.39
2019-01-29T03:09:11.829Z,96.29
2019-01-29T03:12:19.717Z,95.72
2019-01-29T03:15:30.350Z,95.79
2019-01-29T03:18:38.179Z,96.77
2019-01-29T03:21:45.702Z,97.37
2019-01-29T03:24:53.416Z,98.58
2019-01-29T03:28:01.396Z,99.00
2019-01-29T03:31:09.238Z,99.62
2019-01-29T03:34:16.673Z,99.77
2019-01-29T03:37:24.229Z,99.76
2019-01-29T03:40:31.777Z,99.78
2019-01-29T03:43:39.351Z,99.16
2019-01-29T03:46:47.176Z,98.56
2019-01-29T03:49:54.975Z,98.72
2019-01-29T03:53:02.511Z,98.91
2019-01-29T03:56:10.013Z,98.76
2019-01-29T03:59:17.827Z,98.38
2019-01-29T04:02:25.423Z,98.00
2019-01-29T04:05:34.357Z,97.70
2019-01-29T04:08:41.807Z,98.06
2019-01-29T04:11:49.315Z,98.19
2019-01-29T04:14:59.701Z,98.24
2019-01-29T04:18:10.449Z,98.67
2019-01-29T04:21:20.586Z,98.54
2019-01-29T04:24:28.323Z,98.91
2019-01-29T04:27:36.211Z,97.83
2019-01-29T04:30:44.091Z,97.72
2019-01-29T04:33:52.006Z,98.25
2019-01-29T04:37:00.114Z,98.39
2019-01-29T04:40:11.197Z,98.08
2019-01-29T04:43:18.799Z,98.15
2019-01-29T04:46:26.364Z,98.29
2019-01-29T04:49:34.220Z,98.56
2019-01-29T04:52:42.153Z,98.18
2019-01-29T04:55:50.075Z,98.08
2019-01-29T04:58:58.321Z,98.79
2019-01-29T05:05:21.285Z,98.81
2019-01-29T05:08:29.273Z,98.38
2019-01-29T05:11:36.582Z,98.10
2019-01-29T05:14:44.275Z,98.42
2019-01-29T05:17:51.710Z,98.58
2019-01-29T05:20:59.103Z,99.24
2019-01-29T05:24:07.281Z,99.13
2019-01-29T05:27:14.888Z,98.66
2019-01-29T05:30:34.781Z,98.49
2019-01-29T05:33:42.102Z,98.79
2019-01-29T05:36:49.614Z,98.54
2019-01-29T05:39:56.942Z,98.50
2019-01-29T05:43:04.436Z,98.41
2019-01-29T05:46:11.728Z,98.00
2019-01-29T05:49:19.400Z,98.87
2019-01-29T05:52:26.913Z,99.50
2019-01-29T05:55:34.552Z,99.94
2019-01-29T05:58:42.184Z,100.00
2019-01-29T06:01:49.576Z,100.00
2019-01-29T06:04:57.416Z,100.00
2019-01-29T06:08:05.323Z,100.00
2019-01-29T06:11:12.991Z,100.00
2019-01-29T06:14:20.390Z,100.00
2019-01-29T06:17:27.753Z,100.00
2019-01-29T06:20:35.163Z,99.89
2019-01-29T06:23:42.452Z,99.77
2019-01-29T06:26:49.851Z,99.60
2019-01-29T06:29:57.277Z,99.69
2019-01-29T06:33:04.778Z,98.53
2019-01-29T06:36:16.852Z,98.75
2019-01-29T06:39:24.346Z,99.33
2019-01-29T06:42:32.179Z,98.85
2019-01-29T06:45:39.877Z,99.42
2019-01-29T06:48:47.375Z,98.85
2019-01-29T06:51:54.645Z,99.22
2019-01-29T06:55:02.574Z,98.48
2019-01-29T06:58:09.971Z,98.30
2019-01-29T07:01:17.364Z,98.21
2019-01-29T07:04:24.729Z,98.24
2019-01-29T07:07:32.469Z,98.92
2019-01-29T07:10:39.943Z,98.48
2019-01-29T07:13:47.345Z,97.57
2019-01-29T07:17:05.179Z,97.41
2019-01-29T07:20:13.080Z,97.19
2019-01-29T07:23:20.473Z,96.76
2019-01-29T07:26:27.984Z,96.01
2019-01-29T07:29:35.361Z,95.45
2019-01-29T07:32:42.738Z,94.94
2019-01-29T07:35:50.569Z,94.67
2019-01-29T07:38:58.257Z,94.47
2019-01-29T07:42:06.023Z,93.86
2019-01-29T07:45:14.387Z,93.15
2019-01-29T07:48:22.230Z,93.68
2019-01-29T07:51:30.058Z,93.43
2019-01-29T07:54:38.031Z,93.29
2019-01-29T07:57:45.908Z,93.26
2019-01-29T08:00:53.509Z,92.79
2019-01-29T08:04:01.106Z,91.88
2019-01-29T08:07:08.588Z,91.66
2019-01-29T08:10:16.926Z,90.87
2019-01-29T08:13:24.400Z,91.44
2019-01-29T08:16:32.101Z,90.02
2019-01-29T08:19:39.997Z,89.69
2019-01-29T08:22:47.720Z,88.04
2019-01-29T08:25:55.354Z,87.40
2019-01-29T08:29:03.339Z,87.78
2019-01-29T08:32:12.293Z,86.99
2019-01-29T08:35:21.139Z,86.83
2019-01-29T08:38:28.627Z,85.81
2019-01-29T08:41:36.084Z,86.04
2019-01-29T08:44:43.707Z,87.63
2019-01-29T08:47:51.174Z,89.72
2019-01-29T08:50:58.857Z,90.78
2019-01-29T08:54:06.449Z,91.15
2019-01-29T08:57:13.959Z,91.12
2019-01-29T09:00:21.579Z,90.72
2019-01-29T09:03:28.862Z,91.00
2019-01-29T09:06:36.258Z,89.93
2019-01-29T09:09:43.846Z,87.49
2019-01-29T09:12:51.721Z,84.71
2019-01-29T09:15:59.293Z,84.04
2019-01-29T09:19:07.264Z,83.45
2019-01-29T09:22:14.548Z,81.97
2019-01-29T09:25:22.821Z,78.42
2019-01-29T09:28:30.773Z,77.54
2019-01-29T09:31:38.183Z,77.03
2019-01-29T09:34:46.139Z,77.04
2019-01-29T09:37:53.544Z,76.77
2019-01-29T09:41:00.960Z,76.50
2019-01-29T09:44:08.369Z,76.71
2019-01-29T09:47:15.853Z,75.91
2019-01-29T09:50:23.861Z,74.28
2019-01-29T09:53:31.255Z,74.70
2019-01-29T09:56:38.949Z,72.91
2019-01-29T09:59:46.859Z,75.02
2019-01-29T10:02:54.367Z,75.00
2019-01-29T10:06:02.028Z,76.08
2019-01-29T10:09:09.858Z,77.25
2019-01-29T10:12:17.230Z,78.79
2019-01-29T10:15:27.790Z,80.67
2019-01-29T10:18:35.699Z,82.08
2019-01-29T10:21:43.274Z,83.69
2019-01-29T10:24:50.484Z,85.89
2019-01-29T10:27:57.888Z,87.66
2019-01-29T10:31:05.609Z,88.99
2019-01-29T10:34:13.007Z,88.39
2019-01-29T10:37:20.401Z,88.12
2019-01-29T10:40:28.732Z,86.24
2019-01-29T10:43:36.614Z,84.40
2019-01-29T10:46:44.386Z,82.00
2019-01-29T10:49:51.897Z,83.45
2019-01-29T10:52:59.448Z,81.44
2019-01-29T10:56:06.913Z,80.19
2019-01-29T10:59:14.095Z,79.30
2019-01-29T11:02:21.711Z,76.87
2019-01-29T11:05:29.393Z,77.13
2019-01-29T11:08:36.889Z,77.40
2019-01-29T11:11:44.808Z,77.10
2019-01-29T11:14:52.204Z,77.85
2019-01-29T11:18:00.168Z,78.44
2019-01-29T11:21:07.658Z,79.40
2019-01-29T11:24:14.953Z,77.62
2019-01-29T11:27:22.450Z,77.56
2019-01-29T11:30:30.803Z,76.72
2019-01-29T11:33:38.496Z,78.55
2019-01-29T11:36:46.015Z,75.76
2019-01-29T11:39:53.504Z,75.09
2019-01-29T11:43:01.213Z,73.67
2019-01-29T11:46:08.975Z,74.92
2019-01-29T11:49:16.556Z,72.78
2019-01-29T11:52:24.414Z,72.63
2019-01-29T11:55:32.443Z,70.93
2019-01-29T11:58:40.208Z,67.90
2019-01-29T12:01:48.025Z,67.11
2019-01-29T12:04:55.830Z,66.85
2019-01-29T12:08:04.864Z,67.95
2019-01-29T12:11:12.433Z,68.84
2019-01-29T12:14:20.158Z,69.37
2019-01-29T12:17:27.447Z,67.71
2019-01-29T12:20:34.950Z,65.84
2019-01-29T12:23:42.589Z,65.62
2019-01-29T12:26:50.425Z,62.81
2019-01-29T12:29:58.267Z,64.16
2019-01-29T12:33:07.877Z,63.09
2019-01-29T12:36:16.554Z,63.05
2019-01-29T12:39:24.777Z,64.05
2019-01-29T12:42:32.518Z,64.59
2019-01-29T12:45:40.816Z,64.16
2019-01-29T12:48:49.141Z,64.25
2019-01-29T12:52:04.949Z,63.48
2019-01-29T12:55:12.909Z,63.09
2019-01-29T12:58:20.563Z,62.17
2019-01-29T13:01:28.667Z,63.50
2019-01-29T13:04:36.086Z,65.10
2019-01-29T13:07:43.875Z,64.48
2019-01-29T13:10:51.294Z,63.64
2019-01-29T13:13:58.894Z,62.86
2019-01-29T13:17:06.448Z,63.83
2019-01-29T13:20:19.788Z,64.06
2019-01-29T13:23:27.294Z,63.42
2019-01-29T13:26:34.920Z,62.85
2019-01-29T13:29:42.515Z,63.83
2019-01-29T13:32:50.178Z,66.19
2019-01-29T13:35:58.089Z,65.63
2019-01-29T13:39:07.928Z,64.16
2019-01-29T13:42:15.386Z,63.21
2019-01-29T13:45:23.258Z,63.97
2019-01-29T13:48:30.918Z,64.34
2019-01-29T13:51:38.647Z,63.28
2019-01-29T13:54:46.209Z,63.32
2019-01-29T13:57:53.867Z,64.42
2019-01-29T14:01:01.467Z,64.05
2019-01-29T14:04:09.135Z,64.42
2019-01-29T14:07:16.963Z,65.96
2019-01-29T14:10:25.257Z,66.83
2019-01-29T14:13:32.873Z,66.19
2019-01-29T14:16:41.107Z,65.14
2019-01-29T14:19:54.097Z,64.64
2019-01-29T14:23:02.570Z,65.22
2019-01-29T14:26:10.143Z,63.10
2019-01-29T14:29:17.915Z,61.16
2019-01-29T14:32:25.716Z,59.13
2019-01-29T14:35:33.210Z,60.83
2019-01-29T14:39:44.402Z,58.88
2019-01-29T14:42:52.334Z,58.34
2019-01-29T14:46:00.417Z,58.98
2019-01-29T14:49:07.954Z,59.58
2019-01-29T14:52:16.633Z,61.31
2019-01-29T14:55:24.634Z,62.19
2019-01-29T14:58:32.449Z,62.95
2019-01-29T15:01:40.094Z,63.69
2019-01-29T15:04:48.273Z,62.52
2019-01-29T15:07:55.578Z,64.28
2019-01-29T15:11:03.989Z,65.18
2019-01-29T15:14:12.010Z,63.39
2019-01-29T15:17:27.860Z,64.08
2019-01-29T15:20:35.698Z,64.43
2019-01-29T15:23:43.292Z,67.53
2019-01-29T15:26:51.360Z,66.82
2019-01-29T15:29:58.936Z,68.31
2019-01-29T15:33:06.844Z,67.10
2019-01-29T15:36:14.607Z,69.35
2019-01-29T15:39:22.422Z,69.46
2019-01-29T15:42:30.253Z,69.28
2019-01-29T15:45:37.916Z,69.53
2019-01-29T15:48:46.008Z,69.87
2019-01-29T15:51:53.777Z,71.05
2019-01-29T15:55:01.747Z,69.58
2019-01-29T15:58:09.598Z,70.84
2019-01-29T16:01:17.675Z,72.42
2019-01-29T16:04:25.280Z,71.28
2019-01-29T16:07:33.669Z,71.83
2019-01-29T16:10:41.740Z,72.75
2019-01-29T16:13:49.701Z,74.77
2019-01-29T16:16:57.506Z,76.08
2019-01-29T16:20:05.826Z,77.28
2019-01-29T16:23:13.764Z,78.95
2019-01-29T16:26:21.305Z,79.75
2019-01-29T16:29:28.813Z,80.61
2019-01-29T16:32:36.581Z,79.50
2019-01-29T16:35:45.170Z,80.07
2019-01-29T16:38:53.726Z,80.04
2019-01-29T16:42:02.376Z,79.62
2019-01-29T16:45:13.524Z,80.74
2019-01-29T16:48:21.082Z,81.69
2019-01-29T16:51:29.112Z,82.60
2019-01-29T16:54:36.946Z,83.58
2019-01-29T16:57:45.296Z,84.32
2019-01-29T17:00:53.257Z,83.86
2019-01-29T17:04:00.903Z,83.62
2019-01-29T17:07:08.973Z,83.54
2019-01-29T17:10:17.885Z,83.81
2019-01-29T17:13:25.823Z,83.00
2019-01-29T17:16:34.023Z,83.41
2019-01-29T17:19:41.533Z,84.42
2019-01-29T17:22:49.640Z,84.16
2019-01-29T17:25:57.571Z,85.21
2019-01-29T17:29:05.261Z,84.92
2019-01-29T17:32:13.045Z,85.47
2019-01-29T17:35:20.544Z,85.72
2019-01-29T17:38:28.052Z,87.24
2019-01-29T17:41:35.863Z,87.24
2019-01-29T17:44:43.681Z,88.05
2019-01-29T17:47:51.163Z,88.02
2019-01-29T17:50:59.461Z,87.81
2019-01-29T17:54:06.957Z,87.73
2019-01-29T17:57:14.548Z,87.36
2019-01-29T18:00:27.537Z,87.47
2019-01-29T18:03:35.698Z,87.84
2019-01-29T18:06:43.523Z,87.67
2019-01-29T18:09:51.802Z,87.84
2019-01-29T18:12:59.121Z,87.26
2019-01-29T18:16:07.426Z,86.86
2019-01-29T18:19:15.001Z,87.04
2019-01-29T18:22:22.810Z,87.37
2019-01-29T18:25:30.269Z,87.41
2019-01-29T18:28:37.855Z,87.73
2019-01-29T18:31:45.706Z,88.01
2019-01-29T18:34:53.220Z,88.31
2019-01-29T18:38:01.939Z,88.50
2019-01-29T18:41:09.654Z,88.97
2019-01-29T18:44:17.518Z,89.60
2019-01-29T18:47:25.371Z,90.01
2019-01-29T18:50:32.967Z,90.01
2019-01-29T18:53:41.163Z,89.59
2019-01-29T18:56:49.093Z,89.88
2019-01-29T18:59:56.720Z,89.97
2019-01-29T19:03:04.858Z,90.06
2019-01-29T19:06:12.413Z,90.68
2019-01-29T19:09:20.682Z,90.89
2019-01-29T19:12:28.083Z,90.73
2019-01-29T19:15:35.804Z,90.17
2019-01-29T19:18:43.536Z,90.81
2019-01-29T19:21:51.530Z,90.99
2019-01-29T19:24:59.066Z,91.33
2019-01-29T19:28:07.191Z,91.08
2019-01-29T19:31:15.013Z,91.01
2019-01-29T19:34:22.900Z,91.16
2019-01-29T19:37:30.546Z,91.01
2019-01-29T19:40:40.436Z,91.33
2019-01-29T19:43:48.258Z,91.20
2019-01-29T19:46:56.589Z,91.58
2019-01-29T19:50:09.754Z,92.30
2019-01-29T19:53:17.336Z,92.38
2019-01-29T19:56:25.211Z,92.30
2019-01-29T19:59:33.012Z,92.43
2019-01-29T20:02:40.625Z,92.15
2019-01-29T20:05:48.825Z,91.96
2019-01-29T20:08:57.036Z,92.33
2019-01-29T20:12:05.454Z,92.14
2019-01-29T20:15:15.157Z,92.36
2019-01-29T20:18:22.940Z,92.58
2019-01-29T20:21:30.981Z,92.48
2019-01-29T20:24:39.046Z,92.28
2019-01-29T20:27:47.136Z,92.43
2019-01-29T20:30:55.041Z,92.26
2019-01-29T20:34:02.960Z,92.08
2019-01-29T20:37:11.160Z,92.04
2019-01-29T20:40:19.151Z,91.97
2019-01-29T20:43:26.961Z,92.37
2019-01-29T20:46:34.968Z,92.77
2019-01-29T20:49:42.521Z,92.91
2019-01-29T20:52:50.095Z,93.03
2019-01-29T20:55:57.543Z,92.96
2019-01-29T20:59:05.365Z,92.75
2019-01-29T21:02:12.927Z,93.45
2019-01-29T21:05:21.132Z,93.31
2019-01-29T21:08:28.704Z,93.00
2019-01-29T21:11:36.788Z,92.80
2019-01-29T21:14:45.825Z,93.55
2019-01-29T21:17:54.239Z,94.00
2019-01-29T21:21:02.567Z,94.50
2019-01-29T21:24:10.344Z,95.20
2019-01-29T21:27:17.871Z,95.00
2019-01-29T21:30:29.471Z,95.37
2019-01-29T21:33:36.959Z,95.67
2019-01-29T21:36:44.540Z,96.09
2019-01-29T21:39:52.531Z,96.10
2019-01-29T21:43:00.341Z,96.00
2019-01-29T21:46:08.091Z,96.25
2019-01-29T21:49:16.401Z,96.10
2019-01-29T21:52:36.476Z,96.22
2019-01-29T21:55:44.469Z,96.52
2019-01-29T21:58:52.082Z,96.80
2019-01-29T22:01:59.373Z,96.82
2019-01-29T22:05:09.915Z,97.03
2019-01-29T22:08:17.721Z,97.33
2019-01-29T22:11:25.947Z,97.33
2019-01-29T22:14:33.606Z,97.71
2019-01-29T22:17:41.257Z,98.25
2019-01-29T22:20:48.865Z,98.23
2019-01-29T22:23:56.911Z,98.36
2019-01-29T22:27:04.717Z,97.91
2019-01-29T22:30:33.348Z,98.28
2019-01-29T22:33:41.104Z,98.21
2019-01-29T22:36:48.892Z,98.46
2019-01-29T22:39:56.440Z,98.34
2019-01-29T22:43:07.327Z,98.22
2019-01-29T22:46:14.861Z,98.49
2019-01-29T22:49:22.784Z,98.15
2019-01-29T22:52:29.976Z,98.13
2019-01-29T22:55:37.898Z,98.26
2019-01-29T22:58:45.463Z,98.23
2019-01-29T23:01:53.080Z,97.77
2019-01-29T23:05:01.233Z,97.59
2019-01-29T23:08:08.632Z,98.27
2019-01-29T23:11:16.526Z,98.54
2019-01-29T23:14:24.330Z,98.90
2019-01-29T23:17:32.139Z,98.99
2019-01-29T23:20:40.035Z,99.04
2019-01-29T23:23:47.841Z,99.39
2019-01-29T23:26:55.149Z,99.83
2019-01-29T23:30:05.003Z,100.00
2019-01-29T23:33:12.524Z,99.79
2019-01-29T23:36:20.016Z,99.53
2019-01-29T23:39:28.197Z,99.61
2019-01-29T23:42:35.710Z,99.18
2019-01-29T23:45:43.583Z,99.35
2019-01-29T23:48:51.503Z,99.30
2019-01-29T23:51:58.951Z,99.28
2019-01-29T23:55:06.848Z,99.54
2019-01-29T23:58:14.675Z,99.55
